Edelwenn — FGF9477 — position and weather

sailwx.info

Track history (hours):
 
Tides and Currents Weather Stations Pressure Air Temp Water Temp Dewpoint Dewpoint Depression Visibility Wind Speed Wind Dir Waves Ship Positions

Edelwenn

Last reported at 2017-Aug-23 14:46 UTC. Time now 2017-Nov-22 16:34 UTC.
Position N 48°24' W 004°26'.
Warning: this ship's position is months out of date.

Length 11 m.

Type: Sailing vessel. MMSI: 227772540.

Date/timePositionNaut miles runAvg speedWind from/ knotsBaromVisibWave heightAir tempDewpointWater temp
2017-Aug-23 14:46N 48°24' W 004°26'1 1.6
2017-Aug-23 14:00N 48°23' W 004°27'3 6.1
2017-Aug-23 13:31N 48°21' W 004°31'3 6.7
2017-Aug-23 13:00N 48°20' W 004°35'2 5.0
2017-Aug-23 12:30N 48°18' W 004°38'3 5.6
2017-Aug-23 12:00N 48°15' W 004°38'3 6.0
2017-Aug-23 11:30N 48°12' W 004°36'3 5.2
2017-Aug-23 11:01N 48°10' W 004°35'2 3.6
2017-Aug-23 10:21N 48°10' W 004°31'  
2017-Aug-20 14:38N 48°06' W 004°20'0 0.3
2017-Aug-20 14:17N 48°06' W 004°20'1 2.9
2017-Aug-20 13:59N 48°07' W 004°21'2 5.1
2017-Aug-20 13:30N 48°07' W 004°25'3 6.5
2017-Aug-20 12:59N 48°06' W 004°30'4 7.3
2017-Aug-20 12:29N 48°06' W 004°35'4 7.3
2017-Aug-20 12:00N 48°05' W 004°40'3 5.9
2017-Aug-20 11:30N 48°04' W 004°44'3 5.9
2017-Aug-20 10:59N 48°01' W 004°45'  
2017-Aug-16 10:58N 47°43' W 003°40'3 5.5
2017-Aug-16 10:30N 47°43' W 003°36'3 5.0
2017-Aug-16 10:00N 47°42' W 003°33'3 6.6
2017-Aug-16 09:30N 47°41' W 003°28'2 4.7
2017-Aug-16 09:00N 47°41' W 003°24'2 4.9
2017-Aug-16 08:30N 47°43' W 003°22'0 0.0
2017-Aug-15 13:50N 47°43' W 003°21'0 0.0
2017-Aug-15 13:30N 47°43' W 003°21'2 3.1
2017-Aug-15 13:00N 47°41' W 003°22'3 5.0
2017-Aug-15 12:30N 47°39' W 003°21'3 7.0
2017-Aug-15 12:00N 47°36' W 003°17'3 6.3
2017-Aug-15 11:30N 47°34' W 003°14'3 6.1
2017-Aug-15 11:00N 47°31' W 003°12'3 5.1
2017-Aug-15 10:30N 47°29' W 003°10'3 5.1
2017-Aug-15 10:00N 47°27' W 003°08'2 3.6
2017-Aug-15 09:25N 47°25' W 003°06'2 4.8
2017-Aug-15 09:00N 47°26' W 003°03'3 5.1
2017-Aug-15 08:30N 47°28' W 003°00'3 5.7
2017-Aug-15 07:58N 47°30' W 002°57'2 5.4
2017-Aug-15 07:30N 47°32' W 002°55'1 1.3
2017-Aug-15 06:51N 47°33' W 002°54'0 0.0
2017-Aug-14 15:18N 47°33' W 002°54'0 1.2
2017-Aug-14 14:58N 47°32' W 002°54'2 3.7
2017-Aug-14 14:29N 47°31' W 002°55'2 4.5
2017-Aug-14 14:00N 47°29' W 002°56'3 5.0
2017-Aug-14 13:30N 47°26' W 002°58'2 4.5
2017-Aug-14 12:57N 47°24' W 002°59'  
Track history (hours):
 
Tides and Currents Weather Stations Pressure Air Temp Water Temp Dewpoint Dewpoint Depression Visibility Wind Speed Wind Dir Waves Ship Positions

Edelwenn

Last reported at 2017-Aug-23 14:46 UTC. Time now 2017-Nov-22 16:34 UTC.
Position N 48°24' W 004°26'.
Warning: this ship's position is months out of date.

Length 11 m.

Type: Sailing vessel. MMSI: 227772540.

Date/timePositionNaut miles runAvg speedWind from/ knotsBaromVisibWave heightAir tempDewpointWater temp
2017-Aug-23 14:46N 48°24' W 004°26'1 1.6
2017-Aug-23 14:00N 48°23' W 004°27'3 6.1
2017-Aug-23 13:31N 48°21' W 004°31'3 6.7
2017-Aug-23 13:00N 48°20' W 004°35'2 5.0
2017-Aug-23 12:30N 48°18' W 004°38'3 5.6
2017-Aug-23 12:00N 48°15' W 004°38'3 6.0
2017-Aug-23 11:30N 48°12' W 004°36'3 5.2
2017-Aug-23 11:01N 48°10' W 004°35'2 3.6
2017-Aug-23 10:21N 48°10' W 004°31'  
2017-Aug-20 14:38N 48°06' W 004°20'0 0.3
2017-Aug-20 14:17N 48°06' W 004°20'1 2.9
2017-Aug-20 13:59N 48°07' W 004°21'2 5.1
2017-Aug-20 13:30N 48°07' W 004°25'3 6.5
2017-Aug-20 12:59N 48°06' W 004°30'4 7.3
2017-Aug-20 12:29N 48°06' W 004°35'4 7.3
2017-Aug-20 12:00N 48°05' W 004°40'3 5.9
2017-Aug-20 11:30N 48°04' W 004°44'3 5.9
2017-Aug-20 10:59N 48°01' W 004°45'  
2017-Aug-16 10:58N 47°43' W 003°40'3 5.5
2017-Aug-16 10:30N 47°43' W 003°36'3 5.0
2017-Aug-16 10:00N 47°42' W 003°33'3 6.6
2017-Aug-16 09:30N 47°41' W 003°28'2 4.7
2017-Aug-16 09:00N 47°41' W 003°24'2 4.9
2017-Aug-16 08:30N 47°43' W 003°22'0 0.0
2017-Aug-15 13:50N 47°43' W 003°21'0 0.0
2017-Aug-15 13:30N 47°43' W 003°21'2 3.1
2017-Aug-15 13:00N 47°41' W 003°22'3 5.0
2017-Aug-15 12:30N 47°39' W 003°21'3 7.0
2017-Aug-15 12:00N 47°36' W 003°17'3 6.3
2017-Aug-15 11:30N 47°34' W 003°14'3 6.1
2017-Aug-15 11:00N 47°31' W 003°12'3 5.1
2017-Aug-15 10:30N 47°29' W 003°10'3 5.1
2017-Aug-15 10:00N 47°27' W 003°08'2 3.6
2017-Aug-15 09:25N 47°25' W 003°06'2 4.8
2017-Aug-15 09:00N 47°26' W 003°03'3 5.1
2017-Aug-15 08:30N 47°28' W 003°00'3 5.7
2017-Aug-15 07:58N 47°30' W 002°57'2 5.4
2017-Aug-15 07:30N 47°32' W 002°55'1 1.3
2017-Aug-15 06:51N 47°33' W 002°54'0 0.0
2017-Aug-14 15:18N 47°33' W 002°54'0 1.2
2017-Aug-14 14:58N 47°32' W 002°54'2 3.7
2017-Aug-14 14:29N 47°31' W 002°55'2 4.5
2017-Aug-14 14:00N 47°29' W 002°56'3 5.0
2017-Aug-14 13:30N 47°26' W 002°58'2 4.5
2017-Aug-14 12:57N 47°24' W 002°59'  

Dump ship's entire track history